Time;durP1;ratioP1;P1;durP2;ratioP2;P2;SDS_P1;SDS_P2;PMS_P1;PMS_P2;Temp;Humidity;BMP_temperature;BMP_pressure;BME280_temperature;BME280_humidity;BME280_pressure;Samples;Min_cycle;Max_cycle;Signal;HPM_P1;HPM_P2
2023/08/13 00:00:37;;;;;;;;;;;;;;;28.43;32.20;100465.22;5070547;28;19913;-64
2023/08/13 00:03:02;;;;;;;;;;;;;;;28.45;32.22;100459.41;5065648;28;19920;-64
2023/08/13 00:05:28;;;;;;;;;;;;;;;28.42;32.07;100449.81;5051241;28;19921;-63
2023/08/13 00:07:53;;;;;;;;;;;;;;;28.39;32.05;100450.41;5048642;28;19913;-65
2023/08/13 00:10:18;;;;;;;;;;;;;;;28.41;32.04;100445.41;5044136;28;19970;-64
2023/08/13 00:12:44;;;;;;;;;;;;;;;28.42;32.05;100446.19;5052335;28;19913;-64
2023/08/13 00:15:10;;;;;;;;;;;;;;;28.40;31.88;100452.06;5050615;28;19972;-65
2023/08/13 00:17:35;;;;;;;;;;;;;;;28.36;32.08;100449.13;5051454;28;19967;-64
2023/08/13 00:20:01;;;;;;;;;;;;;;;28.35;32.17;100453.00;5050061;28;20320;-64
2023/08/13 00:22:26;;;;;;;;;;;;;;;28.36;32.08;100448.28;5051999;28;19919;-64
2023/08/13 00:24:54;;;;;;;;;;;;;;;28.33;32.10;100448.94;5050376;28;19913;-64
2023/08/13 00:27:20;;;;;;;;;;;;;;;28.32;32.09;100445.31;5050529;28;19943;-64
2023/08/13 00:29:45;;;;;;;;;;;;;;;28.34;32.01;100448.63;5052759;28;19956;-64
2023/08/13 00:32:10;;;;;;;;;;;;;;;28.35;32.15;100439.19;5050952;28;20550;-63
2023/08/13 00:34:35;;;;;;;;;;;;;;;28.35;32.18;100436.41;5049775;28;19917;-63
2023/08/13 00:37:01;;;;;;;;;;;;;;;28.33;32.02;100435.91;5050986;28;19917;-63
2023/08/13 00:39:26;;;;;;;;;;;;;;;28.28;32.01;100438.00;5051310;28;19913;-63
2023/08/13 00:41:53;;;;;;;;;;;;;;;28.28;32.36;100435.22;5051894;28;19924;-63
2023/08/13 00:44:18;;;;;;;;;;;;;;;28.34;32.28;100436.72;5050683;28;19912;-63
2023/08/13 00:46:44;;;;;;;;;;;;;;;28.31;32.51;100431.84;5052367;28;19966;-63
2023/08/13 00:49:09;;;;;;;;;;;;;;;28.26;32.43;100435.53;5050563;28;19991;-63
2023/08/13 00:51:35;;;;;;;;;;;;;;;28.24;32.07;100432.28;5050472;28;19913;-62
2023/08/13 00:54:01;;;;;;;;;;;;;;;28.24;32.26;100428.72;5051395;28;19913;-63
2023/08/13 00:56:27;;;;;;;;;;;;;;;28.25;32.38;100424.81;5051762;28;19936;-63
2023/08/13 00:58:52;;;;;;;;;;;;;;;28.23;32.27;100425.13;5051040;28;19995;-62
2023/08/13 01:01:18;;;;;;;;;;;;;;;28.27;32.11;100425.31;5051983;28;19917;-62
2023/08/13 01:03:43;;;;;;;;;;;;;;;28.26;32.14;100430.00;5050838;28;19927;-62
2023/08/13 01:06:33;;;;;;;;;;;;;;;28.26;32.34;100430.00;5051515;28;19924;-63
2023/08/13 01:08:58;;;;;;;;;;;;;;;28.28;32.10;100427.75;5031709;28;19924;-62
2023/08/13 01:11:29;;;;;;;;;;;;;;;28.26;32.05;100427.25;5041422;28;19913;-60
2023/08/13 01:14:03;;;;;;;;;;;;;;;28.26;32.03;100423.69;5072719;28;20285;-60
2023/08/13 01:16:29;;;;;;;;;;;;;;;28.23;32.33;100435.34;5066885;28;19970;-60
2023/08/13 01:18:54;;;;;;;;;;;;;;;28.19;32.36;100427.72;5052283;28;19956;-61
2023/08/13 01:21:19;;;;;;;;;;;;;;;28.21;32.49;100416.31;5052552;28;20025;-61
2023/08/13 01:23:45;;;;;;;;;;;;;;;28.17;32.24;100415.31;5042701;28;19965;-60
2023/08/13 01:26:16;;;;;;;;;;;;;;;28.20;31.97;100411.94;5053165;28;20330;-62
2023/08/13 01:28:59;;;;;;;;;;;;;;;28.19;32.18;100411.13;5052858;28;19960;-62
2023/08/13 01:31:25;;;;;;;;;;;;;;;28.16;32.23;100413.72;5052983;28;20068;-61
2023/08/13 01:33:51;;;;;;;;;;;;;;;28.15;32.20;100415.63;5052178;28;19913;-61
2023/08/13 01:36:17;;;;;;;;;;;;;;;28.14;32.22;100415.97;5052551;28;19966;-61
2023/08/13 01:38:44;;;;;;;;;;;;;;;28.11;32.08;100413.81;5052840;28;20328;-61
2023/08/13 01:41:19;;;;;;;;;;;;;;;28.09;32.20;100416.09;5053154;28;19917;-61
2023/08/13 01:43:44;;;;;;;;;;;;;;;28.11;32.28;100416.59;5052449;28;19994;-61
2023/08/13 01:46:11;;;;;;;;;;;;;;;28.10;32.00;100413.03;5052672;28;19920;-61
2023/08/13 01:48:36;;;;;;;;;;;;;;;28.13;32.43;100408.81;5052588;28;19917;-61
2023/08/13 01:51:02;;;;;;;;;;;;;;;28.14;32.27;100405.72;5052304;28;19912;-61
2023/08/13 01:53:27;;;;;;;;;;;;;;;28.14;32.08;100399.41;5052217;28;20111;-60
2023/08/13 01:55:52;;;;;;;;;;;;;;;28.14;32.10;100405.72;5051090;28;20269;-61
2023/08/13 01:58:17;;;;;;;;;;;;;;;28.10;32.22;100404.72;5052229;28;20356;-61
2023/08/13 02:00:43;;;;;;;;;;;;;;;28.12;32.26;100396.13;5052401;28;19920;-60
2023/08/13 02:03:10;;;;;;;;;;;;;;;28.09;32.26;100402.28;5066127;28;20398;-61
2023/08/13 02:05:39;;;;;;;;;;;;;;;28.05;32.29;100391.03;5055912;28;19931;-60
2023/08/13 02:08:05;;;;;;;;;;;;;;;28.02;32.68;100393.63;5052758;28;19912;-60
2023/08/13 02:10:30;;;;;;;;;;;;;;;27.94;32.28;100384.13;5052806;28;20273;-60
2023/08/13 02:12:56;;;;;;;;;;;;;;;27.90;32.34;100388.66;5052321;28;20373;-59
2023/08/13 02:15:21;;;;;;;;;;;;;;;27.89;32.24;100390.59;5052339;28;19962;-60
2023/08/13 02:17:49;;;;;;;;;;;;;;;27.89;32.40;100384.22;5055553;28;19932;-60
2023/08/13 02:20:14;;;;;;;;;;;;;;;27.91;32.45;100387.50;5072491;28;20376;-59
2023/08/13 02:22:40;;;;;;;;;;;;;;;27.88;32.54;100390.84;5072315;28;19916;-60
2023/08/13 02:25:05;;;;;;;;;;;;;;;27.89;32.58;100386.97;5071751;28;19952;-61
2023/08/13 02:27:30;;;;;;;;;;;;;;;27.90;32.37;100383.94;5067672;28;19927;-60
2023/08/13 02:29:56;;;;;;;;;;;;;;;27.87;32.16;100384.53;5075828;28;19917;-59
2023/08/13 02:32:21;;;;;;;;;;;;;;;27.90;32.71;100380.38;5076042;28;20382;-59
2023/08/13 02:34:47;;;;;;;;;;;;;;;27.89;32.24;100379.53;5075986;28;19913;-59
2023/08/13 02:37:12;;;;;;;;;;;;;;;27.90;32.25;100378.44;5075951;28;19923;-60
2023/08/13 02:39:37;;;;;;;;;;;;;;;27.90;32.59;100380.38;5076054;28;19913;-60
2023/08/13 02:42:03;;;;;;;;;;;;;;;27.89;32.65;100382.31;5075957;28;19912;-60
2023/08/13 02:44:28;;;;;;;;;;;;;;;27.88;32.59;100380.66;5075845;28;19924;-61
2023/08/13 02:46:53;;;;;;;;;;;;;;;27.88;32.45;100377.06;5075740;28;19913;-61
2023/08/13 02:49:18;;;;;;;;;;;;;;;27.87;32.67;100379.00;5075897;28;20276;-60
2023/08/13 02:51:44;;;;;;;;;;;;;;;27.87;32.62;100378.19;5075733;28;19922;-60
2023/08/13 02:54:10;;;;;;;;;;;;;;;27.90;32.64;100383.94;5074939;28;20285;-60
2023/08/13 02:56:35;;;;;;;;;;;;;;;27.87;32.70;100380.97;5075551;28;19917;-60
2023/08/13 02:59:00;;;;;;;;;;;;;;;27.88;32.70;100379.81;5075320;28;19917;-61
2023/08/13 03:01:27;;;;;;;;;;;;;;;27.92;32.57;100386.41;5078494;28;19930;-60
2023/08/13 03:03:54;;;;;;;;;;;;;;;27.89;32.54;100385.06;5095695;28;20295;-59
2023/08/13 03:06:20;;;;;;;;;;;;;;;27.91;32.61;100391.09;5095654;28;19912;-61
2023/08/13 03:08:45;;;;;;;;;;;;;;;27.90;32.54;100386.72;5095965;28;20307;-61
2023/08/13 03:11:11;;;;;;;;;;;;;;;27.90;32.63;100386.72;5095533;28;19912;-61
2023/08/13 03:13:36;;;;;;;;;;;;;;;27.85;32.55;100381.28;5095652;28;19912;-61
2023/08/13 03:16:01;;;;;;;;;;;;;;;27.84;32.71;100387.09;5095533;28;19912;-61
2023/08/13 03:18:27;;;;;;;;;;;;;;;27.85;32.65;100380.47;5084712;28;19946;-61
2023/08/13 03:20:52;;;;;;;;;;;;;;;27.85;32.77;100374.94;5075198;28;19920;-61
2023/08/13 03:23:17;;;;;;;;;;;;;;;27.86;32.58;100369.13;5075304;28;19977;-61
2023/08/13 03:25:43;;;;;;;;;;;;;;;27.85;32.45;100375.75;5075172;28;20003;-61
2023/08/13 03:28:08;;;;;;;;;;;;;;;27.86;32.60;100371.88;5075031;28;20285;-60
2023/08/13 03:30:33;;;;;;;;;;;;;;;27.85;32.63;100374.94;5075051;28;20002;-61
2023/08/13 03:32:58;;;;;;;;;;;;;;;27.85;32.51;100364.72;5075027;28;19927;-61
2023/08/13 03:35:24;;;;;;;;;;;;;;;27.80;32.48;100370.34;5074405;28;20349;-61
2023/08/13 03:37:49;;;;;;;;;;;;;;;27.78;32.58;100373.41;5074772;28;19923;-61
2023/08/13 03:40:14;;;;;;;;;;;;;;;27.80;32.62;100376.69;5073603;28;19912;-61
2023/08/13 03:42:39;;;;;;;;;;;;;;;27.78;32.69;100370.66;5075011;28;19920;-61
2023/08/13 03:45:05;;;;;;;;;;;;;;;27.77;32.46;100374.56;5074933;28;19913;-61
2023/08/13 03:47:30;;;;;;;;;;;;;;;27.77;32.67;100365.47;5074991;28;19922;-60
2023/08/13 03:49:56;;;;;;;;;;;;;;;27.80;32.46;100364.81;5074551;28;19934;-61
2023/08/13 03:52:21;;;;;;;;;;;;;;;27.85;32.63;100366.66;5074696;28;19919;-61
2023/08/13 03:54:46;;;;;;;;;;;;;;;27.84;32.51;100357.56;5073765;28;20408;-61
2023/08/13 03:57:11;;;;;;;;;;;;;;;27.85;32.24;100352.84;5074493;28;19917;-60
2023/08/13 03:59:37;;;;;;;;;;;;;;;27.85;32.54;100359.19;5074549;28;19998;-61
2023/08/13 04:02:02;;;;;;;;;;;;;;;27.85;32.54;100355.63;5082018;28;20281;-61
2023/08/13 04:04:27;;;;;;;;;;;;;;;27.85;32.40;100348.16;5094618;28;20003;-61
2023/08/13 04:06:52;;;;;;;;;;;;;;;27.81;32.66;100358.19;5094811;28;20265;-61
2023/08/13 04:09:18;;;;;;;;;;;;;;;27.85;32.46;100355.63;5094544;28;19923;-61
2023/08/13 04:11:44;;;;;;;;;;;;;;;27.84;32.84;100353.97;5094548;28;19919;-61
2023/08/13 04:14:09;;;;;;;;;;;;;;;27.84;32.63;100354.81;5094511;28;20022;-60
2023/08/13 04:16:34;;;;;;;;;;;;;;;27.83;32.84;100355.94;5094296;28;19912;-61
2023/08/13 04:18:59;;;;;;;;;;;;;;;27.85;32.47;100347.34;5077462;28;20056;-61
2023/08/13 04:21:25;;;;;;;;;;;;;;;27.89;32.75;100348.34;5074301;28;19912;-61
2023/08/13 04:23:53;;;;;;;;;;;;;;;27.93;32.57;100350.19;5074167;28;19913;-61
2023/08/13 04:26:18;;;;;;;;;;;;;;;27.97;32.41;100337.41;5073979;28;20004;-61
2023/08/13 04:28:44;;;;;;;;;;;;;;;27.96;32.79;100338.53;5074035;28;20003;-61
2023/08/13 04:31:09;;;;;;;;;;;;;;;28.04;32.49;100344.41;5074082;28;19919;-61
2023/08/13 04:33:34;;;;;;;;;;;;;;;28.05;32.64;100349.63;5073944;28;19939;-61
2023/08/13 04:36:00;;;;;;;;;;;;;;;28.06;32.67;100348.50;5073831;28;19956;-61
2023/08/13 04:38:25;;;;;;;;;;;;;;;28.09;32.69;100350.63;5073758;28;19959;-61
2023/08/13 04:40:50;;;;;;;;;;;;;;;28.13;32.52;100346.09;5073807;28;19913;-60
2023/08/13 04:43:16;;;;;;;;;;;;;;;28.17;32.56;100344.34;5073557;28;20385;-62
2023/08/13 04:45:46;;;;;;;;;;;;;;;28.18;32.45;100343.22;5073735;28;19966;-62
2023/08/13 04:48:11;;;;;;;;;;;;;;;28.18;32.35;100347.94;5073864;28;19913;-61
2023/08/13 04:50:36;;;;;;;;;;;;;;;28.12;32.67;100344.50;5073079;28;19986;-61
2023/08/13 04:53:02;;;;;;;;;;;;;;;28.15;32.58;100343.03;5073415;28;19920;-61
2023/08/13 04:55:27;;;;;;;;;;;;;;;28.18;32.85;100345.16;5073106;28;19916;-61
2023/08/13 04:57:52;;;;;;;;;;;;;;;28.22;32.60;100348.13;5073359;28;20288;-61
2023/08/13 05:00:18;;;;;;;;;;;;;;;28.21;32.50;100346.47;5073174;28;19912;-61
2023/08/13 05:02:43;;;;;;;;;;;;;;;28.21;32.81;100352.00;5086381;28;19920;-61
2023/08/13 05:05:08;;;;;;;;;;;;;;;28.21;32.83;100352.81;5093823;28;19997;-61
2023/08/13 05:07:34;;;;;;;;;;;;;;;28.19;32.89;100352.31;5093680;28;19946;-61
2023/08/13 05:10:00;;;;;;;;;;;;;;;28.20;32.59;100359.47;5093663;28;20384;-61
2023/08/13 05:12:25;;;;;;;;;;;;;;;28.20;32.65;100359.47;5093301;28;19912;-60
2023/08/13 05:14:50;;;;;;;;;;;;;;;28.20;32.93;100359.47;5093363;28;19981;-61
2023/08/13 05:17:17;;;;;;;;;;;;;;;28.22;32.94;100362.75;5093260;28;19916;-60
2023/08/13 05:19:42;;;;;;;;;;;;;;;28.26;33.14;100360.16;5093415;28;20023;-61
2023/08/13 05:22:07;;;;;;;;;;;;;;;28.29;32.83;100365.88;5093320;28;19998;-61
2023/08/13 05:24:32;;;;;;;;;;;;;;;28.26;32.83;100362.91;5093580;28;19912;-61
2023/08/13 05:26:58;;;;;;;;;;;;;;;28.23;33.10;100380.13;5093063;28;20022;-61
2023/08/13 05:29:23;;;;;;;;;;;;;;;28.16;33.23;100381.38;5093266;28;19912;-62
2023/08/13 05:31:48;;;;;;;;;;;;;;;28.14;33.00;100380.88;5093301;28;19922;-61
2023/08/13 05:34:13;;;;;;;;;;;;;;;28.18;33.31;100378.31;5093153;28;19958;-62
2023/08/13 05:36:39;;;;;;;;;;;;;;;28.23;33.35;100378.19;5093183;28;19950;-61
2023/08/13 05:39:05;;;;;;;;;;;;;;;28.24;33.84;100382.56;5093086;28;19974;-62
2023/08/13 05:41:30;;;;;;;;;;;;;;;28.25;33.61;100384.22;5092978;28;20379;-61
2023/08/13 05:43:56;;;;;;;;;;;;;;;28.31;33.38;100384.91;5093361;28;19912;-61
2023/08/13 05:46:22;;;;;;;;;;;;;;;28.25;32.99;100381.44;5090841;28;20659;-61
2023/08/13 05:48:47;;;;;;;;;;;;;;;28.28;33.13;100382.75;5072620;28;19966;-61
2023/08/13 05:51:12;;;;;;;;;;;;;;;28.30;33.32;100378.53;5072449;28;19912;-59
2023/08/13 05:53:37;;;;;;;;;;;;;;;28.31;33.24;100376.59;5072169;28;19913;-59
2023/08/13 05:56:03;;;;;;;;;;;;;;;28.31;33.34;100382.94;5071280;28;20222;-61
2023/08/13 05:58:28;;;;;;;;;;;;;;;28.33;33.49;100383.44;5072241;28;19928;-60
2023/08/13 06:00:53;;;;;;;;;;;;;;;28.37;33.32;100381.66;5072519;28;20432;-60
2023/08/13 06:03:19;;;;;;;;;;;;;;;28.36;33.32;100380.06;5092538;28;19924;-61
2023/08/13 06:05:45;;;;;;;;;;;;;;;28.38;33.20;100386.06;5096805;28;19918;-61
2023/08/13 06:08:11;;;;;;;;;;;;;;;28.41;33.46;100386.56;5096827;28;20002;-62
2023/08/13 06:10:36;;;;;;;;;;;;;;;28.45;33.38;100385.63;5084265;28;20014;-62
2023/08/13 06:13:01;;;;;;;;;;;;;;;28.40;33.74;100385.75;5076510;28;19916;-62
2023/08/13 06:15:27;;;;;;;;;;;;;;;28.42;33.53;100380.75;5076291;28;19913;-62
2023/08/13 06:17:52;;;;;;;;;;;;;;;28.47;33.44;100380.63;5076446;28;19970;-62
2023/08/13 06:20:17;;;;;;;;;;;;;;;28.51;33.36;100373.31;5076379;28;19939;-62
2023/08/13 06:22:43;;;;;;;;;;;;;;;28.56;33.23;100375.94;5076262;28;19966;-62
2023/08/13 06:25:08;;;;;;;;;;;;;;;28.60;33.28;100376.13;5076160;28;19923;-62
2023/08/13 06:27:34;;;;;;;;;;;;;;;28.68;33.34;100375.38;5076246;28;20365;-62
2023/08/13 06:29:59;;;;;;;;;;;;;;;28.75;33.12;100380.44;5076107;28;19913;-62
2023/08/13 06:32:24;;;;;;;;;;;;;;;28.79;33.38;100378.69;5076035;28;19912;-62
2023/08/13 06:34:50;;;;;;;;;;;;;;;28.82;33.12;100374.47;5075986;28;20051;-62
2023/08/13 06:37:15;;;;;;;;;;;;;;;28.86;33.33;100376.28;5075992;28;19946;-62
2023/08/13 06:39:41;;;;;;;;;;;;;;;28.87;33.38;100377.09;5075903;28;20268;-61
2023/08/13 06:42:06;;;;;;;;;;;;;;;28.89;33.57;100374.81;5075887;28;20005;-62
2023/08/13 06:44:31;;;;;;;;;;;;;;;28.86;33.73;100379.03;5075761;28;20382;-62
2023/08/13 06:46:57;;;;;;;;;;;;;;;28.89;33.91;100380.34;5076004;28;19943;-62
2023/08/13 06:49:22;;;;;;;;;;;;;;;28.89;33.89;100377.56;5076047;28;19913;-60
2023/08/13 06:51:47;;;;;;;;;;;;;;;28.87;33.76;100380.66;5075613;28;19919;-61
2023/08/13 06:54:13;;;;;;;;;;;;;;;28.87;34.30;100382.63;5074910;28;19912;-61
2023/08/13 06:56:38;;;;;;;;;;;;;;;28.90;33.90;100376.44;5075258;28;19920;-62
2023/08/13 06:59:04;;;;;;;;;;;;;;;28.94;34.04;100382.97;5074749;28;19923;-61
2023/08/13 07:01:29;;;;;;;;;;;;;;;28.96;34.12;100380.69;5078571;28;19959;-62
2023/08/13 07:03:55;;;;;;;;;;;;;;;28.95;34.08;100384.59;5095692;28;19946;-62
2023/08/13 07:06:21;;;;;;;;;;;;;;;28.93;34.25;100382.13;5095722;28;20548;-62
2023/08/13 07:08:46;;;;;;;;;;;;;;;28.90;34.15;100380.03;5095402;28;19961;-61
2023/08/13 07:11:11;;;;;;;;;;;;;;;28.95;34.09;100385.38;5095915;28;20002;-62
2023/08/13 07:13:36;;;;;;;;;;;;;;;29.00;34.08;100383.63;5095676;28;19912;-61
2023/08/13 07:16:02;;;;;;;;;;;;;;;29.06;34.00;100379.59;5095994;28;19912;-62
2023/08/13 07:18:27;;;;;;;;;;;;;;;29.09;34.19;100382.53;5095440;28;20280;-62
2023/08/13 07:20:53;;;;;;;;;;;;;;;29.11;33.89;100387.75;5095513;28;19912;-62
2023/08/13 07:23:18;;;;;;;;;;;;;;;29.12;34.27;100379.13;5095569;28;19920;-62
2023/08/13 07:25:43;;;;;;;;;;;;;;;29.14;34.31;100382.41;5095442;28;20341;-62
2023/08/13 07:28:08;;;;;;;;;;;;;;;29.15;34.10;100380.47;5077302;28;20007;-62
2023/08/13 07:30:34;;;;;;;;;;;;;;;29.16;34.50;100387.63;5095382;28;20264;-62
2023/08/13 07:33:00;;;;;;;;;;;;;;;29.19;34.55;100389.75;5095517;28;19916;-61
2023/08/13 07:35:25;;;;;;;;;;;;;;;29.20;34.60;100382.25;5095454;28;19912;-61
2023/08/13 07:37:50;;;;;;;;;;;;;;;29.28;34.20;100382.28;5096020;28;19916;-61
2023/08/13 07:40:16;;;;;;;;;;;;;;;29.33;34.72;100371.06;5083679;28;19952;-62
2023/08/13 07:42:41;;;;;;;;;;;;;;;29.39;34.49;100379.22;5077105;28;19912;-62
2023/08/13 07:45:06;;;;;;;;;;;;;;;29.35;34.59;100381.81;5074961;28;19975;-62
2023/08/13 07:47:32;;;;;;;;;;;;;;;29.38;34.58;100380.34;5075126;28;19912;-61
2023/08/13 07:49:58;;;;;;;;;;;;;;;29.42;34.36;100376.63;5074686;28;19912;-61
2023/08/13 07:52:23;;;;;;;;;;;;;;;29.46;34.33;100380.38;5074496;28;20361;-62
2023/08/13 07:54:49;;;;;;;;;;;;;;;29.47;34.57;100378.41;5073425;28;19924;-61
2023/08/13 07:57:14;;;;;;;;;;;;;;;29.46;35.37;100372.06;5073724;28;19926;-62
2023/08/13 07:59:40;;;;;;;;;;;;;;;29.50;34.73;100377.78;5074482;28;20065;-61
2023/08/13 08:02:05;;;;;;;;;;;;;;;29.43;35.40;100380.19;5064484;28;19920;-61
2023/08/13 08:04:30;;;;;;;;;;;;;;;29.39;34.82;100377.25;5094622;28;20007;-61
2023/08/13 08:06:56;;;;;;;;;;;;;;;29.37;35.25;100384.25;5094706;28;19912;-61
2023/08/13 08:09:21;;;;;;;;;;;;;;;29.33;35.32;100386.88;5094715;28;20098;-61
2023/08/13 08:11:47;;;;;;;;;;;;;;;29.29;35.27;100391.38;5094612;28;20425;-61
2023/08/13 08:14:12;;;;;;;;;;;;;;;29.19;34.82;100386.97;5094715;28;19919;-62
2023/08/13 08:16:38;;;;;;;;;;;;;;;29.18;35.70;100384.53;5094255;28;19912;-61
2023/08/13 08:19:05;;;;;;;;;;;;;;;29.10;35.87;100386.94;5094181;28;20360;-61
2023/08/13 08:21:31;;;;;;;;;;;;;;;29.06;36.19;100387.88;5094293;28;19998;-61
2023/08/13 08:23:56;;;;;;;;;;;;;;;29.01;36.48;100388.03;5094185;28;19919;-61
2023/08/13 08:26:22;;;;;;;;;;;;;;;28.96;36.36;100395.34;5093433;28;19923;-61
2023/08/13 08:28:51;;;;;;;;;;;;;;;28.94;36.05;100397.59;5094176;28;19938;-61
2023/08/13 08:31:16;;;;;;;;;;;;;;;28.89;36.53;100394.97;5094246;28;19912;-61
2023/08/13 08:33:42;;;;;;;;;;;;;;;28.90;36.35;100402.16;5094023;28;19944;-61
2023/08/13 08:36:07;;;;;;;;;;;;;;;28.90;36.47;100399.38;5083725;28;19916;-61
2023/08/13 08:38:32;;;;;;;;;;;;;;;28.88;36.47;100392.53;5073270;28;20383;-61
2023/08/13 08:40:59;;;;;;;;;;;;;;;28.81;36.94;100392.16;5073687;28;19912;-61
2023/08/13 08:43:28;;;;;;;;;;;;;;;28.84;36.55;100395.09;5073549;28;19913;-62
2023/08/13 08:45:54;;;;;;;;;;;;;;;28.83;36.50;100403.75;5073543;28;20003;-61
2023/08/13 08:48:20;;;;;;;;;;;;;;;28.84;36.57;100397.06;5073774;28;19917;-62
2023/08/13 08:50:46;;;;;;;;;;;;;;;28.79;36.94;100402.72;5073323;28;20301;-61
2023/08/13 08:53:11;;;;;;;;;;;;;;;28.75;36.68;100405.31;5073507;28;20007;-62
2023/08/13 08:55:37;;;;;;;;;;;;;;;28.77;36.43;100400.31;5072667;28;19920;-62
2023/08/13 08:58:02;;;;;;;;;;;;;;;28.71;36.38;100398.78;5073333;28;19921;-62
2023/08/13 09:00:27;;;;;;;;;;;;;;;28.61;36.43;100401.84;5073342;28;19912;-62
2023/08/13 09:02:53;;;;;;;;;;;;;;;28.56;35.99;100400.81;5087543;28;20003;-62
2023/08/13 09:05:19;;;;;;;;;;;;;;;28.63;36.09;100402.34;5093475;28;20357;-61
2023/08/13 09:07:44;;;;;;;;;;;;;;;28.57;36.09;100404.41;5093470;28;19912;-60
2023/08/13 09:10:10;;;;;;;;;;;;;;;28.56;36.26;100400.00;5093617;28;20392;-60
2023/08/13 09:12:36;;;;;;;;;;;;;;;28.62;36.25;100400.69;5092110;28;19919;-60
2023/08/13 09:15:19;;;;;;;;;;;;;;;28.73;36.09;100404.81;5073094;28;20322;-60
2023/08/13 09:17:45;;;;;;;;;;;;;;;28.79;36.34;100398.03;5073077;28;20003;-60
2023/08/13 09:20:19;;;;;;;;;;;;;;;28.81;36.50;100395.75;5073200;28;20041;-59
2023/08/13 09:22:50;;;;;;;;;;;;;;;28.86;36.11;100401.16;5072916;28;19913;-60
2023/08/13 09:25:17;;;;;;;;;;;;;;;28.90;36.10;100398.53;5073251;28;19964;-60
2023/08/13 09:27:43;;;;;;;;;;;;;;;28.92;36.14;100401.84;5072942;28;19912;-60
2023/08/13 09:30:12;;;;;;;;;;;;;;;28.93;36.04;100395.16;5072882;28;19947;-60
2023/08/13 09:32:38;;;;;;;;;;;;;;;28.97;35.80;100396.13;5071860;28;19924;-60
2023/08/13 09:35:04;;;;;;;;;;;;;;;28.99;35.47;100401.34;5072616;28;20277;-60
2023/08/13 09:37:29;;;;;;;;;;;;;;;29.01;35.15;100405.44;5071589;28;20467;-60
2023/08/13 09:39:55;;;;;;;;;;;;;;;28.96;35.12;100406.38;5072453;28;19913;-60
2023/08/13 09:42:22;;;;;;;;;;;;;;;28.95;35.44;100393.69;5072667;28;19923;-60
2023/08/13 09:44:48;;;;;;;;;;;;;;;29.00;35.67;100405.75;5072896;28;19917;-61
2023/08/13 09:47:17;;;;;;;;;;;;;;;29.07;35.49;100395.06;5072939;28;20391;-61
2023/08/13 09:49:43;;;;;;;;;;;;;;;29.19;35.30;100386.16;5072966;28;19912;-61
2023/08/13 09:52:11;;;;;;;;;;;;;;;29.47;34.79;100384.75;5072948;28;19923;-61
2023/08/13 09:54:50;;;;;;;;;;;;;;;29.64;35.03;100395.06;5072098;28;20254;-61
2023/08/13 09:57:16;;;;;;;;;;;;;;;29.65;35.15;100390.31;5072327;28;20043;-60
2023/08/13 09:59:43;;;;;;;;;;;;;;;29.62;34.53;100389.00;5072438;28;20011;-61
2023/08/13 10:02:08;;;;;;;;;;;;;;;29.64;34.71;100394.22;5072484;28;19970;-60
2023/08/13 10:04:38;;;;;;;;;;;;;;;29.65;34.93;100393.91;5072163;28;19939;-61
2023/08/13 10:07:04;;;;;;;;;;;;;;;29.57;34.89;100394.72;5072041;28;19951;-61
2023/08/13 10:09:29;;;;;;;;;;;;;;;29.60;34.99;100396.81;5072272;28;20013;-61
2023/08/13 10:11:55;;;;;;;;;;;;;;;29.62;34.88;100396.50;5072017;28;20377;-61
2023/08/13 10:14:20;;;;;;;;;;;;;;;29.60;34.37;100394.06;5071793;28;19979;-61
2023/08/13 10:16:46;;;;;;;;;;;;;;;29.54;34.70;100395.34;5071817;28;19913;-61
2023/08/13 10:19:11;;;;;;;;;;;;;;;29.60;34.78;100393.25;5072095;28;20000;-63
2023/08/13 10:21:37;;;;;;;;;;;;;;;29.68;35.17;100390.50;5071959;28;19952;-62
2023/08/13 10:24:04;;;;;;;;;;;;;;;29.61;34.64;100395.69;5066414;28;19921;-63
2023/08/13 10:26:29;;;;;;;;;;;;;;;29.65;35.25;100398.63;5068474;28;19924;-63
2023/08/13 10:28:55;;;;;;;;;;;;;;;29.66;34.70;100400.25;5067597;28;19981;-64
2023/08/13 10:31:27;;;;;;;;;;;;;;;29.59;34.99;100397.97;5047607;28;20368;-65
2023/08/13 10:34:11;;;;;;;;;;;;;;;29.46;34.63;100394.22;5067772;28;19916;-66
2023/08/13 10:36:44;;;;;;;;;;;;;;;29.42;34.92;100403.47;5070260;28;19919;-63
2023/08/13 10:39:28;;;;;;;;;;;;;;;29.18;34.54;100396.44;5069342;28;19924;-63
2023/08/13 10:41:54;;;;;;;;;;;;;;;29.07;35.35;100400.59;5069761;28;20377;-63
2023/08/13 10:44:29;;;;;;;;;;;;;;;29.05;35.33;100395.38;5067874;28;19943;-63
2023/08/13 10:46:55;;;;;;;;;;;;;;;29.19;35.13;100402.75;5070341;28;19920;-63
2023/08/13 10:49:21;;;;;;;;;;;;;;;29.37;35.03;100407.22;5072024;28;20300;-63
2023/08/13 10:51:49;;;;;;;;;;;;;;;29.60;34.79;100412.63;5072640;28;19943;-62
2023/08/13 10:54:14;;;;;;;;;;;;;;;29.73;34.53;100404.19;5072795;28;19935;-63
2023/08/13 10:56:42;;;;;;;;;;;;;;;29.73;34.79;100400.56;5068789;28;19924;-63
2023/08/13 10:59:07;;;;;;;;;;;;;;;29.78;34.72;100405.19;5074037;28;19913;-63
2023/08/13 11:01:33;;;;;;;;;;;;;;;29.87;34.69;100417.09;5075998;28;19946;-63
2023/08/13 11:04:03;;;;;;;;;;;;;;;29.94;34.87;100411.88;5055612;28;19924;-63
2023/08/13 11:06:28;;;;;;;;;;;;;;;29.87;34.43;100417.09;5052858;28;19919;-63
2023/08/13 11:08:54;;;;;;;;;;;;;;;29.78;34.96;100416.25;5031836;28;19913;-62
2023/08/13 11:11:19;;;;;;;;;;;;;;;29.89;34.81;100412.84;5053956;28;19981;-62
2023/08/13 11:13:46;;;;;;;;;;;;;;;29.81;34.75;100413.66;5044410;28;19962;-63
2023/08/13 11:16:11;;;;;;;;;;;;;;;29.87;34.68;100415.13;5052300;28;19917;-64
2023/08/13 11:18:37;;;;;;;;;;;;;;;29.92;34.22;100411.34;5053018;28;19916;-64
2023/08/13 11:21:02;;;;;;;;;;;;;;;29.62;34.51;100421.41;5052065;28;19921;-63
2023/08/13 11:23:27;;;;;;;;;;;;;;;29.54;35.00;100421.06;5052493;28;19921;-64
2023/08/13 11:25:53;;;;;;;;;;;;;;;29.81;34.76;100424.72;5052344;28;19916;-63
2023/08/13 11:28:20;;;;;;;;;;;;;;;29.77;35.43;100423.72;5050386;28;19917;-63
2023/08/13 11:30:45;;;;;;;;;;;;;;;29.57;35.51;100418.78;5052748;28;20362;-63
2023/08/13 11:33:10;;;;;;;;;;;;;;;29.67;35.00;100433.13;5050706;28;19913;-63
2023/08/13 11:35:37;;;;;;;;;;;;;;;29.47;35.17;100429.03;5051815;28;19913;-63
2023/08/13 11:38:02;;;;;;;;;;;;;;;29.40;35.01;100425.94;5052855;28;19916;-62
2023/08/13 11:40:28;;;;;;;;;;;;;;;29.22;35.34;100429.78;5052022;28;19917;-62
2023/08/13 11:42:58;;;;;;;;;;;;;;;29.18;35.63;100426.84;5038420;28;19920;-61
2023/08/13 11:45:24;;;;;;;;;;;;;;;29.60;35.05;100429.22;5051567;28;19920;-62
2023/08/13 11:47:53;;;;;;;;;;;;;;;29.59;35.21;100438.66;5052904;28;19920;-62
2023/08/13 11:50:19;;;;;;;;;;;;;;;29.37;35.54;100425.75;5050706;28;19913;-63
2023/08/13 11:53:00;;;;;;;;;;;;;;;29.36;35.63;100435.19;5049076;28;19913;-63
2023/08/13 11:55:25;;;;;;;;;;;;;;;29.51;35.55;100445.81;5052572;28;20361;-63
2023/08/13 11:57:50;;;;;;;;;;;;;;;29.84;35.46;100440.69;5051212;28;19931;-63
2023/08/13 12:00:17;;;;;;;;;;;;;;;29.77;34.21;100445.88;5048198;28;19912;-63
2023/08/13 12:02:42;;;;;;;;;;;;;;;30.08;34.57;100447.69;5057923;28;19921;-60
2023/08/13 12:05:11;;;;;;;;;;;;;;;30.66;33.76;100440.00;5050369;28;20354;-61
2023/08/13 12:07:40;;;;;;;;;;;;;;;30.83;33.27;100445.50;5051157;28;19919;-61
2023/08/13 12:10:05;;;;;;;;;;;;;;;31.23;33.59;100438.84;5050811;28;19916;-61
2023/08/13 12:12:31;;;;;;;;;;;;;;;31.40;32.67;100452.63;5053750;28;20359;-61
2023/08/13 12:14:57;;;;;;;;;;;;;;;31.41;31.68;100447.91;5018019;28;19970;-61
2023/08/13 12:17:22;;;;;;;;;;;;;;;31.54;31.24;100448.84;5051093;28;19963;-60
2023/08/13 12:19:48;;;;;;;;;;;;;;;31.70;31.74;100440.72;5051732;28;19913;-61
2023/08/13 12:22:14;;;;;;;;;;;;;;;31.82;31.47;100443.56;5050382;28;19963;-61
2023/08/13 12:24:39;;;;;;;;;;;;;;;31.69;31.06;100437.13;5053348;28;20313;-61
2023/08/13 12:27:04;;;;;;;;;;;;;;;31.78;30.88;100446.22;5050323;28;19990;-61
2023/08/13 12:29:29;;;;;;;;;;;;;;;32.10;30.82;100451.41;5050809;28;19948;-61